Airfield :
LOGIN :

Register | Disclaimer

   EN    FR    IT 

 










Legend :    VFR   Marginal VFR   IFR   Intensive IFR   Very Intensive IFR
Visi :
Ceiling :
>= 8 km
>= 3000ft
5 to 8 km
1000 to 3000 ft
1500m to 5 km
500 to 1000 ft
800 to 1500m
200 to 500 ft
< 800m
< 200 ft
Symbols :   Thunderstorms  Fog  Heavy snow  Heavy precipitations  Wind > 20 kt
SIGMETs :     Misc.  Thunderstorms  Icing  Turbulence  Mountain Waves  Volcanic Ashes







- Airport Elevation : 0 ft


ETEB - Ansbach Army Heliport

CURRENT METAR :
  • 200336Z AUTO 26012G19KT 9999 -DZ OVC013 02/00 A3013 RMK AO2 DZE04DZB36 SLP235

EXPIRED METARs :
  • 200304Z AUTO 26011KT 9999 OVC012 02/00 A3012 RMK AO2 DZE04 SLP234
  • 200253Z AUTO 27011KT 9999 UP OVC011 02/00 A3013 RMK AO2 UPB53 SLP237
  • 200158Z AUTO 25010KT 9999 OVC011 02/01 A3013 RMK AO2 RAB28E38 SLP235 T00230010 $
  • 200138Z AUTO 25014KT 9999 BKN011 OVC036 02/01 A3012 RMK AO2 RAB28E38 BKN V OVC SLP232
  • 200128Z AUTO 26012KT 9999 -RA OVC011 02/01 A3012 RMK AO2 RAB28 OVC V BKN SLP232
  • 200058Z AUTO 27011G21KT 9999 BKN010 BKN015 BKN036 02/01 A3012 RMK AO2 DZE2358RAB2358E06DZB06E16 SLP232 T00230011 $

TAF TAF ETEB
Valid from the 19 at 21:00 until the 21 at 03:00 UTC


192156Z 1921/2103 27012KT 6000 -RASN BKN014 BKN040 620409 QNH3009INS
TEMPO 1921/2004 27010G20KT BKN015
BECMG 2003/2004 27012KT 9999 NSW BKN020 OVC040 620209 QNH3007INS
BECMG 2013/2014 25012G18KT 5000 -SN BKN015 OVC030 620209 QNH3004INS TX05/2020Z TNM01/2004Z
No reported NOTAMs for that airfield.



MET'MAP, your aeronautical weather chart ! - Copyright ORBIFLY December 2007 - Disclaimer

ORBIFLY MET'MAP TEAM :

Programming & Development : Alexandra Zaïnal
Concept & Development : Baudouin d'Aumeries
Co-Development & Prog : Marc-Olivier Méhu
Technical & hardware support : Manuel Goepfert

Contact : metmap@orbifly.com




SOURCES & CREDITS :

   NOAA